KSLC/SLC METAR and TAF weather

Enter ICAO airport designator
Station Type Date Time Source
KSLC METAR 2020/07/08 21:54 UTC NOAA

KSLC 082154Z 32008KT 10SM FEW100 FEW140 31/03 A2996 RMK AO2 SLP091 FU FEW140 FU DSNT NW T03060033


Station Type Date Time Source
KSLC Decoded METAR 2020/07/08 21:54 UTC NOAA

SALT LAKE CITY INTERNATIONAL AIRPORT , UT, United States (KSLC) 40-47N 111-58W 1286M
Jul 08, 2020 - 05:54 PM EDT / 2020.07.08 2154 UTC
Wind: from the NW (320 degrees) at 9 MPH (8 KT):0
Visibility: 10 mile(s):0
Sky conditions: mostly clear
Temperature: 87.1 F (30.6 C)
Dew Point: 37.9 F (3.3 C)
Relative Humidity: 17%
Pressure (altimeter): 29.96 in. Hg (1014 hPa)
ob: KSLC 082154Z 32008KT 10SM FEW100 FEW140 31/03 A2996 RMK AO2 SLP091 FU FEW140 FU DSNT NW T03060033
cycle: 22

Station Type Date Time Source
KSLC TAF 2020/07/08 21:06 UTC NOAA

TAF
AMD KSLC 082104Z 0821/0924 33009KT P6SM SKC
FM090500 15004KT P6SM SKC
FM091800 34009KT P6SM SKC

Example: see airport list